createdAt,value
2023-05-07T00:04:23.976Z,100702.11
2023-05-07T00:09:27.901Z,100705.38
2023-05-07T00:14:32.139Z,100706.73
2023-05-07T00:19:36.221Z,100707.67
2023-05-07T00:24:39.959Z,100715.41
2023-05-07T00:29:43.831Z,100713.09
2023-05-07T00:34:47.517Z,100713.88
2023-05-07T00:39:51.379Z,100715.05
2023-05-07T00:44:55.093Z,100718.40
2023-05-07T00:49:59.393Z,100729.45
2023-05-07T00:55:06.622Z,100730.29
2023-05-07T01:00:11.861Z,100734.83
2023-05-07T01:05:18.051Z,100734.61
2023-05-07T01:10:22.753Z,100731.98
2023-05-07T01:15:26.948Z,100733.54
2023-05-07T01:20:31.938Z,100734.08
2023-05-07T01:25:36.060Z,100729.60
2023-05-07T01:30:42.655Z,100730.70
2023-05-07T01:35:48.655Z,100728.35
2023-05-07T01:40:52.784Z,100727.91
2023-05-07T01:45:57.614Z,100735.08
2023-05-07T01:51:02.094Z,100740.85
2023-05-07T01:56:06.793Z,100740.71
2023-05-07T02:01:11.622Z,100740.60
2023-05-07T02:06:15.642Z,100742.99
2023-05-07T02:11:19.870Z,100748.65
2023-05-07T02:16:25.162Z,100749.17
2023-05-07T02:21:31.135Z,100748.98
2023-05-07T02:26:35.724Z,100749.66
2023-05-07T02:31:39.634Z,100747.52
2023-05-07T02:36:43.588Z,100745.97
2023-05-07T02:41:49.796Z,100745.76
2023-05-07T02:46:53.596Z,100752.53
2023-05-07T02:51:57.529Z,100760.23
2023-05-07T02:57:03.454Z,100761.54
2023-05-07T03:02:07.398Z,100761.48
2023-05-07T03:07:11.288Z,100764.54
2023-05-07T03:12:15.023Z,100765.40
2023-05-07T03:17:18.906Z,100764.77
2023-05-07T03:22:23.095Z,100771.18
2023-05-07T03:27:27.002Z,100783.69
2023-05-07T03:32:31.283Z,100782.54
2023-05-07T03:37:36.436Z,100788.42
2023-05-07T03:42:40.440Z,100793.38
2023-05-07T03:47:44.435Z,100792.11
2023-05-07T03:52:49.791Z,100799.02
2023-05-07T03:57:55.270Z,100809.08
2023-05-07T04:02:59.344Z,100818.41
2023-05-07T04:08:06.815Z,100826.73
2023-05-07T04:13:16.919Z,100830.67
2023-05-07T04:18:21.532Z,100833.00
2023-05-07T04:23:27.030Z,100839.84
2023-05-07T04:28:34.105Z,100845.02
2023-05-07T04:33:38.441Z,100851.15
2023-05-07T04:38:43.912Z,100861.23
2023-05-07T04:43:47.746Z,100867.38
2023-05-07T04:48:52.458Z,100872.88
2023-05-07T04:53:56.354Z,100871.34
2023-05-07T04:59:00.672Z,100879.16
2023-05-07T05:04:04.936Z,100884.55
2023-05-07T05:09:08.952Z,100890.29
2023-05-07T05:14:13.448Z,100904.45
2023-05-07T05:19:18.272Z,100907.16
2023-05-07T05:24:22.338Z,100912.36
2023-05-07T05:29:26.690Z,100923.89
2023-05-07T05:34:30.484Z,100920.77
2023-05-07T05:39:35.068Z,100925.28
2023-05-07T05:44:39.229Z,100923.23
2023-05-07T05:49:44.603Z,100924.42
2023-05-07T05:54:48.997Z,100925.90
2023-05-07T05:59:53.699Z,100929.50
2023-05-07T06:04:57.590Z,100929.48
2023-05-07T06:10:02.281Z,100935.29
2023-05-07T06:15:08.725Z,100940.83
2023-05-07T06:20:13.180Z,100940.90
2023-05-07T06:25:17.531Z,100943.98
2023-05-07T06:30:21.574Z,100950.24
2023-05-07T06:35:25.421Z,100955.33
2023-05-07T06:40:29.330Z,100965.83
2023-05-07T06:45:35.635Z,100971.10
2023-05-07T06:50:39.939Z,100975.25
2023-05-07T06:55:43.820Z,100987.44
2023-05-07T07:00:48.369Z,100994.06
2023-05-07T07:05:56.157Z,100983.29
2023-05-07T07:11:01.827Z,100985.12
2023-05-07T07:16:06.454Z,100995.84
2023-05-07T07:21:11.040Z,100997.85
2023-05-07T07:26:15.154Z,100998.77
2023-05-07T07:31:20.180Z,101006.34
2023-05-07T07:36:29.436Z,101012.64
2023-05-07T07:41:43.787Z,101022.54
2023-05-07T07:46:48.407Z,101029.05
2023-05-07T07:51:52.499Z,101038.22
2023-05-07T07:56:56.502Z,101048.09
2023-05-07T08:02:00.810Z,101048.88
2023-05-07T08:07:06.127Z,101049.10
2023-05-07T08:12:11.655Z,101049.16
2023-05-07T08:17:17.382Z,101048.11
2023-05-07T08:22:23.330Z,101050.53
2023-05-07T08:27:27.732Z,101058.67
2023-05-07T08:32:31.680Z,101062.70
2023-05-07T08:37:35.656Z,101069.27
2023-05-07T08:42:41.718Z,101076.48
2023-05-07T08:47:49.308Z,101083.15
2023-05-07T08:52:53.528Z,101089.30
2023-05-07T08:57:57.906Z,101096.77
2023-05-07T09:03:03.106Z,101102.66
2023-05-07T09:08:09.975Z,101108.17
2023-05-07T09:13:15.987Z,101106.05
2023-05-07T09:18:20.653Z,101113.23
2023-05-07T09:23:25.985Z,101114.89
2023-05-07T09:28:30.844Z,101118.23
2023-05-07T09:33:34.898Z,101116.61
2023-05-07T09:38:40.915Z,101110.38
2023-05-07T09:43:45.281Z,101105.62
2023-05-07T09:48:51.279Z,101107.77
2023-05-07T09:53:56.224Z,101106.71
2023-05-07T09:59:05.221Z,101106.39
2023-05-07T10:04:10.123Z,101101.52
2023-05-07T10:09:15.468Z,101111.94
2023-05-07T10:14:21.400Z,101119.63
2023-05-07T10:19:26.324Z,101124.18
2023-05-07T10:24:35.287Z,101120.20
2023-05-07T10:30:17.034Z,101128.43
2023-05-07T10:35:26.553Z,101126.64
2023-05-07T10:40:32.281Z,101126.49
2023-05-07T10:45:37.118Z,101131.02
2023-05-07T10:50:47.524Z,101129.34
2023-05-07T10:55:54.012Z,101127.63
2023-05-07T11:01:04.742Z,101129.17
2023-05-07T11:06:16.748Z,101129.92
2023-05-07T11:11:54.156Z,101130.70
2023-05-07T11:17:08.433Z,101127.30
2023-05-07T11:22:38.473Z,101133.15
2023-05-07T11:28:08.111Z,101137.88
2023-05-07T11:33:12.482Z,101147.36
2023-05-07T11:38:17.529Z,101148.76
2023-05-07T11:43:21.690Z,101154.40
2023-05-07T11:48:25.806Z,101162.75
2023-05-07T11:53:37.822Z,101168.10
2023-05-07T11:58:42.776Z,101175.02
2023-05-07T12:03:47.672Z,101181.10
2023-05-07T12:08:51.636Z,101178.83
2023-05-07T12:13:59.827Z,101180.05
2023-05-07T12:19:03.804Z,101175.87
2023-05-07T12:24:07.757Z,101178.11
2023-05-07T12:29:11.809Z,101184.83
2023-05-07T12:34:15.774Z,101189.88
2023-05-07T12:39:19.770Z,101191.56
2023-05-07T12:44:25.324Z,101195.96
2023-05-07T12:49:29.401Z,101195.42
2023-05-07T12:54:39.382Z,101194.27
2023-05-07T12:59:43.949Z,101188.73
2023-05-07T13:04:49.350Z,101195.61
2023-05-07T13:09:53.207Z,101204.38
2023-05-07T13:14:57.211Z,101205.35
2023-05-07T13:20:01.148Z,101215.77
2023-05-07T13:25:05.216Z,101222.81
2023-05-07T13:30:09.640Z,101223.75
2023-05-07T13:35:13.544Z,101228.02
2023-05-07T13:40:17.772Z,101234.53
2023-05-07T13:45:22.392Z,101239.34
2023-05-07T13:50:28.336Z,101233.87
2023-05-07T13:55:32.199Z,101233.64
2023-05-07T14:00:36.159Z,101228.17
2023-05-07T14:05:40.057Z,101232.67
2023-05-07T14:10:44.135Z,101236.10
2023-05-07T14:15:49.974Z,101232.02
2023-05-07T14:20:54.028Z,101229.96
2023-05-07T14:25:58.710Z,101228.27
2023-05-07T14:31:02.820Z,101229.23
2023-05-07T14:36:06.852Z,101228.95
2023-05-07T14:41:10.709Z,101233.44
2023-05-07T14:46:14.604Z,101238.95
2023-05-07T14:51:18.881Z,101235.79
2023-05-07T14:56:22.973Z,101243.38
2023-05-07T15:01:28.114Z,101248.77
2023-05-07T15:06:32.771Z,101247.57
2023-05-07T15:11:36.675Z,101246.25
2023-05-07T15:16:40.912Z,101249.25
2023-05-07T15:21:45.009Z,101250.66
2023-05-07T15:26:49.226Z,101249.52
2023-05-07T15:31:53.459Z,101255.55
2023-05-07T15:36:58.575Z,101255.86
2023-05-07T15:42:02.668Z,101259.23
2023-05-07T15:47:06.529Z,101258.89
2023-05-07T15:52:15.024Z,101254.51
2023-05-07T15:57:18.813Z,101254.92
2023-05-07T16:02:22.586Z,101251.20
2023-05-07T16:07:26.737Z,101249.86
2023-05-07T16:12:30.693Z,101249.41
2023-05-07T16:17:34.459Z,101255.48
2023-05-07T16:22:38.416Z,101262.29
2023-05-07T16:27:42.311Z,101262.91
2023-05-07T16:32:46.281Z,101264.13
2023-05-07T16:37:50.115Z,101270.06
2023-05-07T16:42:55.546Z,101266.66
2023-05-07T16:47:59.743Z,101270.79
2023-05-07T16:53:06.089Z,101270.97
2023-05-07T16:58:11.971Z,101268.58
2023-05-07T17:03:15.762Z,101267.00
2023-05-07T17:08:19.826Z,101270.84
2023-05-07T17:13:23.823Z,101272.29
2023-05-07T17:18:27.904Z,101271.42
2023-05-07T17:23:34.424Z,101275.81
2023-05-07T17:28:39.954Z,101281.87
2023-05-07T17:33:43.637Z,101282.19
2023-05-07T17:38:47.377Z,101285.25
2023-05-07T17:43:51.399Z,101289.95
2023-05-07T17:48:57.254Z,101289.65
2023-05-07T17:54:02.009Z,101290.80
2023-05-07T17:59:06.480Z,101293.48
2023-05-07T18:04:11.957Z,101298.69
2023-05-07T18:09:15.632Z,101304.69
2023-05-07T18:14:25.618Z,101307.13
2023-05-07T18:19:31.212Z,101313.95
2023-05-07T18:24:36.554Z,101315.16
2023-05-07T18:29:41.093Z,101319.41
2023-05-07T18:34:46.700Z,101322.52
2023-05-07T18:39:52.809Z,101323.98
2023-05-07T18:45:02.226Z,101328.51
2023-05-07T18:50:15.462Z,101336.96
2023-05-07T18:55:23.034Z,101343.52
2023-05-07T19:00:27.766Z,101350.69
2023-05-07T19:05:33.513Z,101352.96
2023-05-07T19:10:40.997Z,101354.97
2023-05-07T19:15:46.317Z,101363.06
2023-05-07T19:20:54.696Z,101369.13
2023-05-07T19:26:00.782Z,101377.50
2023-05-07T19:31:06.756Z,101380.98
2023-05-07T19:36:11.816Z,101391.46
2023-05-07T19:41:23.682Z,101390.71
2023-05-07T19:46:27.747Z,101387.91
2023-05-07T19:51:33.582Z,101393.90
2023-05-07T19:56:38.826Z,101401.88
2023-05-07T20:01:44.783Z,101403.41
2023-05-07T20:06:53.621Z,101406.29
2023-05-07T20:11:57.648Z,101404.78
2023-05-07T20:17:01.924Z,101408.48
2023-05-07T20:22:08.659Z,101411.41
2023-05-07T20:27:12.619Z,101413.46
2023-05-07T20:32:18.980Z,101416.59
2023-05-07T20:37:31.203Z,101418.55
2023-05-07T20:42:35.896Z,101420.39
2023-05-07T20:47:39.693Z,101419.95
2023-05-07T20:52:45.559Z,101421.33
2023-05-07T20:57:50.923Z,101426.09
2023-05-07T21:02:56.240Z,101430.98
2023-05-07T21:08:00.092Z,101433.39
2023-05-07T21:13:03.810Z,101438.61
2023-05-07T21:18:10.295Z,101442.83
2023-05-07T21:23:15.761Z,101449.67
2023-05-07T21:28:19.617Z,101452.98
2023-05-07T21:33:23.544Z,101455.85
2023-05-07T21:38:27.363Z,101456.20
2023-05-07T21:43:31.806Z,101458.24
2023-05-07T21:48:36.071Z,101462.48
2023-05-07T21:53:39.991Z,101462.61
2023-05-07T21:58:43.801Z,101464.91
2023-05-07T22:03:47.758Z,101462.15
2023-05-07T22:08:52.342Z,101462.41
2023-05-07T22:13:56.054Z,101461.91
2023-05-07T22:19:00.122Z,101459.95
2023-05-07T22:24:07.899Z,101460.36
2023-05-07T22:29:12.517Z,101462.42
2023-05-07T22:34:16.573Z,101459.11
2023-05-07T22:39:20.498Z,101455.62
2023-05-07T22:44:24.523Z,101451.91
2023-05-07T22:49:28.846Z,101446.70
2023-05-07T22:54:34.757Z,101447.18
2023-05-07T22:59:39.796Z,101445.52
2023-05-07T23:04:44.290Z,101443.94
2023-05-07T23:09:48.684Z,101446.34
2023-05-07T23:14:53.025Z,101449.65
2023-05-07T23:19:57.870Z,101448.27
2023-05-07T23:25:04.044Z,101457.16
2023-05-07T23:30:09.293Z,101459.30
2023-05-07T23:35:14.558Z,101458.50
2023-05-07T23:40:20.437Z,101455.63
2023-05-07T23:45:25.616Z,101454.19
2023-05-07T23:50:29.870Z,101449.31
2023-05-07T23:55:34.285Z,101443.11
